Time,TemperatureF,DewpointF,PressureIn,WindDirection,WindDirectionDegrees,WindSpeedMPH,WindSpeedGustMPH,Humidity,HourlyPrecipIn,Conditions,Clouds,dailyrainin,SoftwareType,DateUTC
2013-02-25 00:07:00,39.7,34.0,29.95,South,184,0.0,0.0,81,0.00,,,0.00,weatherlink.com 1.10,2013-02-24 23:07:00,
2013-02-25 00:22:00,40.0,34.0,29.95,South,182,0.0,0.0,80,0.00,,,0.00,weatherlink.com 1.10,2013-02-24 23:22:00,
2013-02-25 00:37:00,40.2,35.0,29.95,South,177,0.0,0.0,80,0.00,,,0.00,weatherlink.com 1.10,2013-02-24 23:37:00,
2013-02-25 00:52:00,40.1,34.0,29.95,South,178,0.0,0.0,80,0.00,,,0.00,weatherlink.com 1.10,2013-02-24 23:52:00,
2013-02-25 01:07:00,40.6,35.0,29.96,South,184,0.0,1.0,79,0.00,,,0.00,weatherlink.com 1.10,2013-02-25 00:07:00,
2013-02-25 01:23:00,41.3,36.0,29.96,ENE,60,0.0,2.0,80,0.00,,,0.00,weatherlink.com 1.10,2013-02-25 00:23:00,
2013-02-25 01:38:00,41.6,36.0,29.95,NNE,29,0.0,1.0,81,0.00,,,0.00,weatherlink.com 1.10,2013-02-25 00:38:00,
2013-02-25 01:53:00,41.2,36.0,29.95,South,183,0.0,0.0,83,0.00,,,0.00,weatherlink.com 1.10,2013-02-25 00:53:00,
2013-02-25 02:08:00,41.2,36.0,29.96,SSE,148,0.0,0.0,83,0.00,,,0.00,weatherlink.com 1.10,2013-02-25 01:08:00,
2013-02-25 02:23:00,42.0,37.0,29.96,South,170,0.0,1.0,81,0.00,,,0.00,weatherlink.com 1.10,2013-02-25 01:23:00,
2013-02-25 02:38:00,42.2,37.0,29.97,East,84,0.0,1.0,82,0.00,,,0.00,weatherlink.com 1.10,2013-02-25 01:38:00,
2013-02-25 02:53:00,41.4,36.0,29.96,NNE,22,0.0,1.0,82,0.00,,,0.00,weatherlink.com 1.10,2013-02-25 01:53:00,
2013-02-25 03:08:00,40.4,36.0,29.95,South,189,0.0,1.0,85,0.00,,,0.00,weatherlink.com 1.10,2013-02-25 02:08:00,
2013-02-25 03:23:00,39.6,36.0,29.96,South,177,0.0,0.0,86,0.00,,,0.00,weatherlink.com 1.10,2013-02-25 02:23:00,
2013-02-25 03:38:00,39.5,36.0,29.95,ENE,70,0.0,1.0,87,0.00,,,0.00,weatherlink.com 1.10,2013-02-25 02:38:00,
2013-02-25 03:53:00,39.7,36.0,29.95,ENE,58,0.0,0.0,87,0.00,,,0.00,weatherlink.com 1.10,2013-02-25 02:53:00,
2013-02-25 04:08:00,39.3,36.0,29.96,SSE,148,0.0,0.0,88,0.00,,,0.00,weatherlink.com 1.10,2013-02-25 03:08:00,
2013-02-25 04:23:00,39.3,36.0,29.97,East,91,0.0,2.0,89,0.02,,,0.02,weatherlink.com 1.10,2013-02-25 03:23:00,
2013-02-25 04:38:00,38.5,36.0,29.96,ENE,57,0.0,1.0,89,0.06,,,0.06,weatherlink.com 1.10,2013-02-25 03:38:00,
2013-02-25 04:53:00,38.1,36.0,29.96,ENE,57,0.0,1.0,91,0.09,,,0.09,weatherlink.com 1.10,2013-02-25 03:53:00,
2013-02-25 05:08:00,38.3,37.0,29.97,ENE,72,2.0,2.0,93,0.09,,,0.09,weatherlink.com 1.10,2013-02-25 04:08:00,
2013-02-25 05:23:00,38.7,37.0,29.97,ENE,64,0.0,2.0,93,0.08,,,0.10,weatherlink.com 1.10,2013-02-25 04:23:00,
2013-02-25 05:38:00,38.7,37.0,29.97,ENE,63,0.0,1.0,93,0.06,,,0.12,weatherlink.com 1.10,2013-02-25 04:38:00,
2013-02-25 05:53:00,39.2,37.0,29.98,SSE,160,0.0,0.0,93,0.06,,,0.14,weatherlink.com 1.10,2013-02-25 04:53:00,
2013-02-25 06:08:00,39.5,38.0,29.98,SSE,156,0.0,1.0,94,0.07,,,0.17,weatherlink.com 1.10,2013-02-25 05:08:00,
2013-02-25 06:23:00,39.5,38.0,29.98,SSE,157,0.0,0.0,94,0.06,,,0.17,weatherlink.com 1.10,2013-02-25 05:23:00,
2013-02-25 06:38:00,39.5,38.0,29.99,SSE,156,0.0,0.0,94,0.05,,,0.17,weatherlink.com 1.10,2013-02-25 05:38:00,
2013-02-25 06:53:00,39.2,38.0,29.99,SSE,157,0.0,0.0,94,0.02,,,0.17,weatherlink.com 1.10,2013-02-25 05:53:00,
2013-02-25 07:08:00,39.2,38.0,29.99,NE,55,0.0,1.0,94,0.00,,,0.17,weatherlink.com 1.10,2013-02-25 06:08:00,
2013-02-25 07:23:00,38.9,37.0,30.00,NE,54,0.0,0.0,94,0.00,,,0.17,weatherlink.com 1.10,2013-02-25 06:23:00,
2013-02-25 07:38:00,38.9,38.0,30.00,NE,54,0.0,0.0,95,0.00,,,0.17,weatherlink.com 1.10,2013-02-25 06:38:00,
2013-02-25 07:53:00,39.1,38.0,30.01,NE,55,0.0,0.0,95,0.00,,,0.17,weatherlink.com 1.10,2013-02-25 06:53:00,
2013-02-25 08:08:00,39.1,38.0,30.01,NE,54,0.0,1.0,95,0.00,,,0.17,weatherlink.com 1.10,2013-02-25 07:08:00,
2013-02-25 08:23:00,39.2,38.0,30.02,South,189,0.0,0.0,95,0.01,,,0.17,weatherlink.com 1.10,2013-02-25 07:23:00,
2013-02-25 08:38:00,39.7,38.0,30.02,South,180,0.0,0.0,95,0.02,,,0.19,weatherlink.com 1.10,2013-02-25 07:38:00,
2013-02-25 08:53:00,39.8,38.0,30.03,South,179,0.0,1.0,94,0.04,,,0.20,weatherlink.com 1.10,2013-02-25 07:53:00,
2013-02-25 09:08:00,39.8,39.0,30.03,South,181,0.0,0.0,95,0.07,,,0.24,weatherlink.com 1.10,2013-02-25 08:08:00,
2013-02-25 09:23:00,39.7,38.0,30.04,South,182,0.0,0.0,95,0.11,,,0.28,weatherlink.com 1.10,2013-02-25 08:23:00,
2013-02-25 09:38:00,39.8,39.0,30.04,South,182,0.0,0.0,95,0.15,,,0.34,weatherlink.com 1.10,2013-02-25 08:38:00,
2013-02-25 09:53:00,39.6,38.0,30.03,NE,48,1.0,6.0,95,0.20,,,0.40,weatherlink.com 1.10,2013-02-25 08:53:00,
2013-02-25 10:08:00,39.5,38.0,30.03,NE,39,0.0,4.0,95,0.17,,,0.41,weatherlink.com 1.10,2013-02-25 09:08:00,
2013-02-25 10:23:00,39.7,38.0,30.03,NE,56,0.0,5.0,95,0.13,,,0.41,weatherlink.com 1.10,2013-02-25 09:23:00,
2013-02-25 10:38:00,40.0,39.0,30.04,NE,46,0.0,0.0,95,0.07,,,0.42,weatherlink.com 1.10,2013-02-25 09:38:00,
2013-02-25 10:53:00,39.9,39.0,30.05,NNE,29,0.0,1.0,95,0.02,,,0.42,weatherlink.com 1.10,2013-02-25 09:53:00,
2013-02-25 11:08:00,40.2,39.0,30.05,NNE,32,0.0,0.0,95,0.01,,,0.42,weatherlink.com 1.10,2013-02-25 10:08:00,
2013-02-25 11:23:00,40.6,39.0,30.05,SSE,164,0.0,0.0,95,0.01,,,0.42,weatherlink.com 1.10,2013-02-25 10:23:00,
2013-02-25 11:38:00,40.6,39.0,30.04,NE,41,0.0,1.0,95,0.00,,,0.42,weatherlink.com 1.10,2013-02-25 10:38:00,
2013-02-25 11:53:00,40.5,39.0,30.05,NE,48,0.0,2.0,94,0.00,,,0.42,weatherlink.com 1.10,2013-02-25 10:53:00,
2013-02-25 12:08:00,40.5,39.0,30.04,NE,53,0.0,3.0,94,0.00,,,0.42,weatherlink.com 1.10,2013-02-25 11:08:00,
2013-02-25 12:23:00,40.6,39.0,30.04,East,91,1.0,2.0,93,0.00,,,0.42,weatherlink.com 1.10,2013-02-25 11:23:00,
2013-02-25 12:38:00,40.6,39.0,30.05,NNE,14,0.0,1.0,93,0.00,,,0.42,weatherlink.com 1.10,2013-02-25 11:38:00,
2013-02-25 12:53:00,40.8,39.0,30.04,NNE,15,0.0,4.0,93,0.01,,,0.43,weatherlink.com 1.10,2013-02-25 11:53:00,
2013-02-25 13:08:00,42.0,40.0,30.03,NNE,28,0.0,1.0,93,0.01,,,0.43,weatherlink.com 1.10,2013-02-25 12:08:00,
2013-02-25 13:24:00,42.6,40.0,30.04,ENE,64,0.0,3.0,91,0.01,,,0.43,weatherlink.com 1.10,2013-02-25 12:24:00,
2013-02-25 13:39:00,42.7,40.0,30.04,NNE,29,1.0,3.0,90,0.01,,,0.43,weatherlink.com 1.10,2013-02-25 12:39:00,
2013-02-25 13:54:00,42.9,40.0,30.04,ENE,64,0.0,2.0,90,0.00,,,0.43,weatherlink.com 1.10,2013-02-25 12:54:00,
2013-02-25 14:09:00,43.0,41.0,30.04,South,177,0.0,1.0,91,0.00,,,0.43,weatherlink.com 1.10,2013-02-25 13:09:00,
2013-02-25 14:24:00,42.6,40.0,30.04,NNE,28,0.0,0.0,90,0.00,,,0.43,weatherlink.com 1.10,2013-02-25 13:24:00,
2013-02-25 14:39:00,42.0,39.0,30.04,ENE,64,1.0,2.0,89,0.00,,,0.43,weatherlink.com 1.10,2013-02-25 13:39:00,
2013-02-25 14:54:00,41.9,39.0,30.04,NNE,32,0.0,1.0,89,0.00,,,0.43,weatherlink.com 1.10,2013-02-25 13:54:00,
2013-02-25 15:09:00,42.7,39.0,30.04,NNE,32,0.0,3.0,88,0.00,,,0.43,weatherlink.com 1.10,2013-02-25 14:09:00,
2013-02-25 15:24:00,42.5,39.0,30.04,NNE,26,0.0,2.0,88,0.00,,,0.43,weatherlink.com 1.10,2013-02-25 14:24:00,
2013-02-25 15:39:00,41.8,38.0,30.05,NNE,28,0.0,4.0,86,0.00,,,0.43,weatherlink.com 1.10,2013-02-25 14:39:00,
2013-02-25 15:54:00,41.5,38.0,30.05,ENE,63,0.0,1.0,88,0.00,,,0.43,weatherlink.com 1.10,2013-02-25 14:54:00,
2013-02-25 16:09:00,41.3,38.0,30.05,NNE,27,0.0,1.0,88,0.00,,,0.43,weatherlink.com 1.10,2013-02-25 15:09:00,
2013-02-25 16:24:00,41.4,38.0,30.05,NNE,28,0.0,3.0,88,0.00,,,0.43,weatherlink.com 1.10,2013-02-25 15:24:00,
2013-02-25 16:39:00,41.4,38.0,30.04,West,267,0.0,2.0,88,0.00,,,0.43,weatherlink.com 1.10,2013-02-25 15:39:00,
2013-02-25 16:54:00,41.6,38.0,30.05,ESE,117,0.0,2.0,88,0.00,,,0.43,weatherlink.com 1.10,2013-02-25 15:54:00,
2013-02-25 17:09:00,41.4,38.0,30.05,ESE,108,0.0,2.0,89,0.00,,,0.43,weatherlink.com 1.10,2013-02-25 16:09:00,
2013-02-25 17:24:00,41.1,39.0,30.05,ESE,102,0.0,0.0,91,0.01,,,0.43,weatherlink.com 1.10,2013-02-25 16:24:00,
2013-02-25 17:39:00,40.9,39.0,30.05,East,82,0.0,1.0,91,0.01,,,0.43,weatherlink.com 1.10,2013-02-25 16:39:00,
2013-02-25 17:54:00,40.9,39.0,30.05,NNE,25,0.0,0.0,92,0.01,,,0.43,weatherlink.com 1.10,2013-02-25 16:54:00,
2013-02-25 18:09:00,40.7,39.0,30.05,ENE,58,0.0,1.0,92,0.01,,,0.43,weatherlink.com 1.10,2013-02-25 17:09:00,
2013-02-25 18:24:00,40.7,39.0,30.05,NNE,29,0.0,0.0,92,0.00,,,0.43,weatherlink.com 1.10,2013-02-25 17:24:00,
2013-02-25 18:39:00,40.5,38.0,30.06,NNE,29,0.0,0.0,92,0.00,,,0.43,weatherlink.com 1.10,2013-02-25 17:39:00,
2013-02-25 18:54:00,40.7,38.0,30.06,NNE,29,0.0,0.0,91,0.00,,,0.43,weatherlink.com 1.10,2013-02-25 17:54:00,
2013-02-25 19:09:00,41.2,39.0,30.06,ENE,57,0.0,2.0,90,0.00,,,0.43,weatherlink.com 1.10,2013-02-25 18:09:00,
2013-02-25 19:24:00,41.2,39.0,30.06,NNE,27,0.0,0.0,90,0.00,,,0.43,weatherlink.com 1.10,2013-02-25 18:24:00,
2013-02-25 19:39:00,41.2,38.0,30.06,NNE,27,0.0,0.0,89,0.00,,,0.43,weatherlink.com 1.10,2013-02-25 18:39:00,
2013-02-25 19:54:00,41.4,38.0,30.06,NE,50,0.0,1.0,89,0.00,,,0.43,weatherlink.com 1.10,2013-02-25 18:54:00,
2013-02-25 20:09:00,41.4,38.0,30.06,NE,48,0.0,0.0,89,0.00,,,0.43,weatherlink.com 1.10,2013-02-25 19:09:00,
2013-02-25 20:24:00,41.2,39.0,30.06,NE,48,0.0,0.0,90,0.00,,,0.43,weatherlink.com 1.10,2013-02-25 19:24:00,
2013-02-25 20:39:00,41.8,39.0,30.06,NE,53,0.0,1.0,89,0.00,,,0.43,weatherlink.com 1.10,2013-02-25 19:39:00,
2013-02-25 21:09:00,41.4,39.0,30.06,SSE,149,0.0,0.0,90,0.00,,,0.43,weatherlink.com 1.10,2013-02-25 20:09:00,
2013-02-25 21:24:00,41.6,39.0,30.06,East,82,0.0,0.0,89,0.00,,,0.43,weatherlink.com 1.10,2013-02-25 20:24:00,
2013-02-25 21:39:00,41.4,39.0,30.07,ENE,67,0.0,1.0,90,0.00,,,0.43,weatherlink.com 1.10,2013-02-25 20:39:00,
2013-02-25 21:54:00,41.6,39.0,30.06,ENE,64,0.0,0.0,89,0.00,,,0.43,weatherlink.com 1.10,2013-02-25 20:54:00,
2013-02-25 22:09:00,41.1,38.0,30.06,ENE,64,0.0,0.0,90,0.00,,,0.43,weatherlink.com 1.10,2013-02-25 21:09:00,
2013-02-25 22:24:00,41.0,39.0,30.06,ENE,63,0.0,1.0,91,0.00,,,0.43,weatherlink.com 1.10,2013-02-25 21:24:00,
2013-02-25 22:39:00,41.1,38.0,30.06,ENE,63,0.0,2.0,90,0.00,,,0.43,weatherlink.com 1.10,2013-02-25 21:39:00,
2013-02-25 22:54:00,41.0,39.0,30.06,NE,56,0.0,2.0,91,0.00,,,0.43,weatherlink.com 1.10,2013-02-25 21:54:00,
2013-02-25 23:09:00,40.7,38.0,30.06,ENE,68,0.0,1.0,90,0.00,,,0.43,weatherlink.com 1.10,2013-02-25 22:09:00,
2013-02-25 23:24:00,40.3,38.0,30.06,ENE,63,0.0,1.0,91,0.00,,,0.43,weatherlink.com 1.10,2013-02-25 22:24:00,
2013-02-25 23:39:00,40.2,38.0,30.07,ENE,63,0.0,0.0,91,0.00,,,0.43,weatherlink.com 1.10,2013-02-25 22:39:00,
2013-02-25 23:54:00,40.3,38.0,30.06,ENE,57,0.0,0.0,91,0.00,,,0.43,weatherlink.com 1.10,2013-02-25 22:54:00,